Time;durP1;ratioP1;P1;durP2;ratioP2;P2;SDS_P1;SDS_P2;PMS_P1;PMS_P2;Temp;Humidity;BMP_temperature;BMP_pressure;BME280_temperature;BME280_humidity;BME280_pressure;Samples;Min_cycle;Max_cycle;Signal;HPM_P1;HPM_P2
2023/03/16 00:00:03;;;;;;;34.13;24.13;;;;;;;5.58;100.00;99251.22;5000217;28;20045;-70
2023/03/16 00:02:29;;;;;;;31.55;19.60;;;;;;;6.40;100.00;99399.75;5003143;28;20217;-72
2023/03/16 00:04:54;;;;;;;31.88;17.13;;;;;;;5.79;100.00;99281.63;4996235;28;20133;-71
2023/03/16 00:07:20;;;;;;;27.45;18.55;;;;;;;5.64;100.00;99265.97;5002369;28;20046;-72
2023/03/16 00:09:46;;;;;;;33.20;20.23;;;;;;;5.85;100.00;99314.59;5000943;28;20038;-72
2023/03/16 00:12:17;;;;;;;37.85;18.55;;;;;;;5.53;100.00;99262.50;4997334;28;20034;-70
2023/03/16 00:14:45;;;;;;;31.52;16.27;;;;;;;6.47;100.00;99436.22;4999426;28;20038;-75
2023/03/16 00:17:19;;;;;;;36.55;18.90;;;;;;;6.49;100.00;99413.66;5005278;28;20046;-72
2023/03/16 00:19:56;;;;;;;27.38;16.27;;;;;;;6.41;100.00;99406.69;5003252;28;20042;-71
2023/03/16 00:22:27;;;;;;;29.95;14.68;;;;;;;6.47;100.00;99425.81;5007237;28;20409;-72
2023/03/16 00:24:54;;;;;;;57.03;19.05;;;;;;;5.93;100.00;99315.47;4996719;28;20029;-72
2023/03/16 00:27:21;;;;;;;27.00;18.25;;;;;;;6.33;100.00;99407.56;5005423;28;20034;-71
2023/03/16 00:29:48;;;;;;;23.77;15.10;;;;;;;6.08;100.00;99359.78;5002288;28;20046;-73
2023/03/16 00:32:19;;;;;;;27.45;17.00;;;;;;;6.40;100.00;99426.69;5002497;28;20042;-71
2023/03/16 00:34:45;;;;;;;34.20;17.52;;;;;;;6.57;100.00;99438.84;4955933;28;1270686;-72
2023/03/16 00:37:14;;;;;;;31.80;18.55;;;;;;;5.76;100.00;99285.94;5008044;28;20140;-71
2023/03/16 00:39:44;;;;;;;27.15;18.05;;;;;;;6.53;100.00;99427.53;4997635;28;20038;-74
2023/03/16 00:42:11;;;;;;;29.92;17.27;;;;;;;5.74;100.00;99295.50;5004064;28;20180;-72
2023/03/16 00:44:37;;;;;;;29.35;18.42;;;;;;;6.02;100.00;99338.09;5006851;28;20041;-73
2023/03/16 00:47:05;;;;;;;36.15;17.67;;;;;;;6.48;100.00;99440.56;5004418;28;20046;-74
2023/03/16 00:49:33;;;;;;;28.85;17.85;;;;;;;6.38;100.00;99414.53;5006356;28;20096;-72
2023/03/16 00:52:03;;;;;;;22.77;14.93;;;;;;;6.30;100.00;99417.13;5007258;28;20481;-72
2023/03/16 00:54:31;;;;;;;26.08;16.85;;;;;;;6.27;100.00;99428.38;5003528;28;20124;-71
2023/03/16 00:56:58;;;;;;;36.22;15.93;;;;;;;5.28;100.00;99263.31;5007580;28;20042;-72
2023/03/16 00:59:25;;;;;;;30.00;21.38;;;;;;;5.66;100.00;99330.16;5003741;28;20144;-70
2023/03/16 01:01:54;;;;;;;29.58;18.85;;;;;;;5.32;100.00;99292.81;4998830;28;20168;-71
2023/03/16 01:04:21;;;;;;;39.70;18.85;;;;;;;6.05;100.00;99413.59;5007513;28;20037;-72
2023/03/16 01:06:48;;;;;;;29.80;16.40;;;;;;;6.01;100.00;99419.66;5003949;28;20030;-73
2023/03/16 01:09:13;;;;;;;29.98;18.25;;;;;;;5.14;100.00;99282.34;5005173;28;20034;-72
2023/03/16 01:11:43;;;;;;;31.08;18.05;;;;;;;5.53;100.00;99351.84;5003197;28;20049;-73
2023/03/16 01:14:09;;;;;;;24.17;15.00;;;;;;;5.29;100.00;99314.47;5006766;28;20042;-72
2023/03/16 01:16:35;;;;;;;35.65;15.80;;;;;;;5.35;100.00;99338.75;5001911;28;20502;-71
2023/03/16 01:19:00;;;;;;;23.75;16.33;;;;;;;6.13;100.00;99474.38;5005620;28;20375;-72
2023/03/16 01:21:27;;;;;;;24.45;16.00;;;;;;;5.34;100.00;99342.22;5002427;28;20091;-72
2023/03/16 01:23:52;;;;;;;31.02;15.50;;;;;;;6.15;100.00;99493.47;5004004;28;20052;-72
2023/03/16 01:26:19;;;;;;;33.50;18.83;;;;;;;6.18;100.00;99488.31;5004886;28;20050;-70
2023/03/16 01:28:45;;;;;;;24.17;15.38;;;;;;;5.22;100.00;99338.72;5006486;28;20046;-71
2023/03/16 01:31:13;;;;;;;23.33;14.65;;;;;;;6.12;100.00;99502.16;5007104;28;20513;-72
2023/03/16 01:33:39;;;;;;;26.27;13.77;;;;;;;6.16;100.00;99503.06;5007518;28;20055;-72
2023/03/16 01:36:07;;;;;;;23.63;14.30;;;;;;;6.17;100.00;99522.16;5001916;28;20091;-70
2023/03/16 01:38:33;;;;;;;24.63;14.20;;;;;;;6.10;100.00;99500.41;4998737;28;20073;-73
2023/03/16 01:40:59;;;;;;;25.13;16.13;;;;;;;5.90;100.00;99458.66;5006361;28;20465;-72
2023/03/16 01:43:27;;;;;;;21.88;13.48;;;;;;;5.48;100.00;99389.97;4999665;28;20038;-72
2023/03/16 01:46:04;;;;;;;25.73;17.50;;;;;;;6.24;100.00;99543.00;5006952;28;20537;-73
2023/03/16 01:48:36;;;;;;;25.77;14.32;;;;;;;5.44;100.00;99406.44;5001333;28;20065;-71
2023/03/16 01:51:10;;;;;;;25.65;14.85;;;;;;;5.39;100.00;99406.41;5005317;28;20118;-71
2023/03/16 01:53:39;;;;;;;32.38;16.33;;;;;;;6.18;100.00;99545.59;5004705;28;20133;-70
2023/03/16 01:56:08;;;;;;;37.15;19.75;;;;;;;5.34;100.00;99412.44;5003627;28;20054;-70
2023/03/16 01:58:36;;;;;;;20.05;14.00;;;;;;;6.08;100.00;99534.25;5000563;28;20522;-70
2023/03/16 02:01:02;;;;;;;23.08;14.25;;;;;;;6.20;100.00;99575.09;5004420;28;20100;-73
2023/03/16 02:03:29;;;;;;;30.50;19.08;;;;;;;5.39;100.00;99431.56;5003824;28;20102;-70
2023/03/16 02:06:09;;;;;;;30.73;16.58;;;;;;;6.21;100.00;99579.47;5004608;28;20053;-73
2023/03/16 02:08:37;;;;;;;25.05;15.40;;;;;;;5.67;100.00;99487.22;5002435;28;20125;-70
2023/03/16 02:11:04;;;;;;;18.75;13.38;;;;;;;5.33;100.00;99428.91;4989312;28;20042;-71
2023/03/16 02:13:35;;;;;;;24.08;14.98;;;;;;;5.31;100.00;99428.03;5000420;28;20041;-70
2023/03/16 02:16:02;;;;;;;20.92;16.08;;;;;;;5.97;100.00;99550.69;5003301;28;20112;-74
2023/03/16 02:18:27;;;;;;;26.33;15.93;;;;;;;5.31;100.00;99454.03;5005626;28;20485;-70
2023/03/16 02:21:00;;;;;;;21.73;16.70;;;;;;;5.31;100.00;99467.06;5004806;28;20065;-73
2023/03/16 02:23:26;;;;;;;20.58;13.38;;;;;;;6.19;100.00;99608.97;5005083;28;20058;-72
2023/03/16 02:26:13;;;;;;;28.52;15.40;;;;;;;6.13;100.00;99617.63;5001972;28;20045;-71
2023/03/16 02:29:33;;;;;;;21.15;12.60;;;;;;;6.22;100.00;99627.22;4999847;28;20599;-72
2023/03/16 02:32:01;;;;;;;21.77;12.93;;;;;;;6.20;100.00;99649.78;4981386;28;20900;-71
2023/03/16 02:34:27;;;;;;;18.33;11.77;;;;;;;5.59;100.00;99530.53;5003395;28;20050;-71
2023/03/16 02:36:54;;;;;;;29.70;13.05;;;;;;;5.44;100.00;99528.72;5002424;28;20116;-73
2023/03/16 02:39:20;;;;;;;29.52;11.55;;;;;;;5.56;100.00;99572.16;5003415;28;20034;-72
2023/03/16 02:41:46;;;;;;;22.20;14.77;;;;;;;5.25;100.00;99523.38;5003171;28;20076;-71
2023/03/16 02:44:19;;;;;;;19.88;12.43;;;;;;;5.86;100.00;99626.13;4989484;28;20506;-72
2023/03/16 02:46:47;;;;;;;30.15;15.35;;;;;;;5.15;100.00;99523.28;4992127;28;20119;-73
2023/03/16 02:49:30;;;;;;;20.75;12.93;;;;;;;6.10;100.00;99690.53;5004738;28;20054;-71
2023/03/16 02:51:56;;;;;;;17.27;10.05;;;;;;;5.28;100.00;99544.19;5000502;28;20053;-70
2023/03/16 02:54:23;;;;;;;12.25;8.95;;;;;;;5.24;100.00;99550.25;4996255;28;20034;-70
2023/03/16 02:56:48;;;;;;;25.75;11.77;;;;;;;5.45;100.00;99585.06;5004817;28;20042;-73
2023/03/16 02:59:14;;;;;;;17.13;11.73;;;;;;;5.92;100.00;99673.00;5000996;28;20045;-73
2023/03/16 03:01:39;;;;;;;23.25;13.10;;;;;;;5.62;100.00;99624.22;5003356;28;20379;-72
2023/03/16 03:04:05;;;;;;;28.38;12.10;;;;;;;6.06;100.00;99697.47;5006644;28;20030;-73
2023/03/16 03:06:31;;;;;;;23.80;9.98;;;;;;;5.81;100.00;99675.56;5002210;28;20054;-71
2023/03/16 03:08:57;;;;;;;20.48;12.80;;;;;;;5.04;100.00;99546.63;4997557;28;20084;-72
2023/03/16 03:11:23;;;;;;;25.10;11.65;;;;;;;5.85;100.00;99689.47;5001324;28;20054;-71
2023/03/16 03:13:49;;;;;;;18.15;11.88;;;;;;;5.18;100.00;99571.00;5005204;28;20398;-72
2023/03/16 03:16:14;;;;;;;16.88;9.85;;;;;;;5.74;100.00;99672.91;5003343;28;20053;-72
2023/03/16 03:18:40;;;;;;;25.88;8.43;;;;;;;5.18;100.00;99573.59;5006500;28;20033;-76
2023/03/16 03:21:05;;;;;;;14.80;10.23;;;;;;;5.61;100.00;99658.91;4998416;28;20539;-72
2023/03/16 03:23:31;;;;;;;14.13;8.43;;;;;;;5.80;100.00;99733.69;5000007;28;20046;-71
2023/03/16 03:25:58;;;;;;;15.20;8.52;;;;;;;5.16;100.00;99613.47;5002928;28;20121;-71
2023/03/16 03:28:23;;;;;;;21.02;9.15;;;;;;;5.81;100.00;99743.25;5004698;28;20061;-71
2023/03/16 03:30:50;;;;;;;18.75;6.70;;;;;;;5.09;100.00;99607.31;5005760;28;20088;-70
2023/03/16 03:33:16;;;;;;;12.82;6.88;;;;;;;5.28;100.00;99637.81;5006988;28;20129;-70
2023/03/16 03:35:42;;;;;;;8.90;6.20;;;;;;;5.05;100.00;99605.53;5000216;28;20125;-71
2023/03/16 03:38:07;;;;;;;13.98;8.07;;;;;;;5.77;100.00;99738.00;5009276;28;20125;-71
2023/03/16 03:40:33;;;;;;;9.73;6.20;;;;;;;5.54;100.00;99709.16;5008803;28;20049;-72
2023/03/16 03:43:00;;;;;;;15.38;7.10;;;;;;;4.76;100.00;99585.34;5001181;28;20042;-71
2023/03/16 03:45:26;;;;;;;15.38;8.85;;;;;;;5.65;100.00;99750.03;5007919;28;20134;-71
2023/03/16 03:47:53;;;;;;;12.63;7.43;;;;;;;4.91;100.00;99608.00;5008335;28;20413;-70
2023/03/16 03:50:20;;;;;;;11.80;7.32;;;;;;;4.80;100.00;99602.72;4992888;28;20213;-72
2023/03/16 03:52:45;;;;;;;34.63;8.32;;;;;;;4.84;100.00;99614.88;5008042;28;20042;-72
2023/03/16 03:55:11;;;;;;;11.50;7.47;;;;;;;5.49;100.00;99733.41;5003480;28;20054;-70
2023/03/16 03:57:36;;;;;;;10.82;7.00;;;;;;;5.32;100.00;99736.72;5009865;28;20109;-71
2023/03/16 04:00:08;;;;;;;26.70;6.80;;;;;;;4.68;100.00;99592.19;5007650;28;20076;-70
2023/03/16 04:02:34;;;;;;;14.10;6.35;;;;;;;5.24;100.00;99708.00;5006873;28;20045;-71
2023/03/16 04:04:59;;;;;;;11.48;6.93;;;;;;;4.70;100.00;99623.38;4998605;28;20045;-72
2023/03/16 04:07:25;;;;;;;11.15;7.20;;;;;;;4.68;100.00;99610.38;5007493;28;20060;-72
2023/03/16 04:09:50;;;;;;;8.20;5.60;;;;;;;5.47;100.00;99722.09;5007787;28;20034;-70
2023/03/16 04:12:16;;;;;;;11.75;6.88;;;;;;;5.34;100.00;99738.47;5002591;28;20089;-72
2023/03/16 04:14:42;;;;;;;10.63;6.95;;;;;;;5.35;100.00;99719.41;5007944;28;20084;-72
2023/03/16 04:17:07;;;;;;;9.85;6.85;;;;;;;5.47;100.00;99768.94;5002940;28;20494;-71
2023/03/16 04:19:33;;;;;;;13.32;6.35;;;;;;;5.47;100.00;99774.16;5002659;28;20046;-72
2023/03/16 04:21:58;;;;;;;14.43;7.13;;;;;;;4.85;100.00;99641.75;5003649;28;20561;-72
2023/03/16 04:24:24;;;;;;;31.33;6.50;;;;;;;4.61;100.00;99655.31;5007543;28;20038;-70
2023/03/16 04:26:49;;;;;;;9.02;5.25;;;;;;;5.37;100.00;99807.88;5008120;28;20034;-71
2023/03/16 04:29:18;;;;;;;10.00;5.53;;;;;;;5.23;100.00;99753.09;5005855;28;20467;-71
2023/03/16 04:31:44;;;;;;;13.00;6.35;;;;;;;5.32;100.00;99771.41;5000776;28;20046;-72
2023/03/16 04:34:13;;;;;;;11.38;5.53;;;;;;;4.63;100.00;99680.47;4999185;28;20108;-72
2023/03/16 04:36:38;;;;;;;9.23;4.90;;;;;;;5.37;100.00;99800.94;5004068;28;20026;-73
2023/03/16 04:39:05;;;;;;;9.07;4.78;;;;;;;4.76;100.00;99711.81;5005308;28;20103;-71
2023/03/16 04:41:30;;;;;;;10.50;5.03;;;;;;;4.81;100.00;99689.34;5001389;28;20136;-73
2023/03/16 04:43:57;;;;;;;8.02;5.05;;;;;;;4.69;100.00;99704.81;5006100;28;20562;-72
2023/03/16 04:46:25;;;;;;;6.03;3.70;;;;;;;4.89;100.00;99747.50;5000623;28;20046;-72
2023/03/16 04:48:51;;;;;;;9.10;4.35;;;;;;;4.89;100.00;99744.03;5006398;28;20103;-71
2023/03/16 04:51:16;;;;;;;22.42;5.30;;;;;;;5.52;100.00;99869.59;5007840;28;20037;-70
2023/03/16 04:53:43;;;;;;;6.43;4.50;;;;;;;5.55;100.00;99873.13;5007542;28;20057;-73
2023/03/16 04:56:16;;;;;;;8.90;4.70;;;;;;;5.63;100.00;99889.69;5004726;28;20168;-70
2023/03/16 04:58:42;;;;;;;;;;;;;;;5.46;100.00;99886.91;5005087;28;20526;-70
2023/03/16 05:01:07;;;;;;;9.70;4.25;;;;;;;4.68;100.00;99757.63;4995206;28;19932;-73
2023/03/16 05:03:33;;;;;;;6.88;3.00;;;;;;;5.15;100.00;99866.53;4995028;28;21715;-73
2023/03/16 05:05:59;;;;;;;8.25;4.32;;;;;;;4.50;100.00;99761.72;4992546;28;20248;-70
2023/03/16 05:08:25;;;;;;;41.50;7.35;;;;;;;5.14;100.00;99837.06;4999938;28;20054;-72
2023/03/16 05:10:55;;;;;;;8.02;4.57;;;;;;;5.38;100.00;99877.25;5001574;28;20049;-73
2023/03/16 05:13:20;;;;;;;7.22;4.00;;;;;;;5.21;100.00;99885.69;4996272;28;20400;-72
2023/03/16 05:15:46;;;;;;;5.63;3.85;;;;;;;5.25;100.00;99905.72;4982168;28;20049;-72
2023/03/16 05:18:12;;;;;;;6.95;4.13;;;;;;;5.00;100.00;99875.03;5009102;28;20068;-71
2023/03/16 05:20:37;;;;;;;6.32;3.35;;;;;;;5.29;100.00;99930.00;5005071;28;20042;-73
2023/03/16 05:23:03;;;;;;;7.40;3.63;;;;;;;5.04;100.00;99915.81;4996997;28;20054;-75
2023/03/16 05:25:28;;;;;;;7.68;4.10;;;;;;;5.19;100.00;99955.03;5002765;28;20052;-74
2023/03/16 05:27:54;;;;;;;6.38;3.30;;;;;;;4.32;100.00;99809.06;4997115;28;20053;-71
2023/03/16 05:30:19;;;;;;;6.93;4.10;;;;;;;5.43;100.00;99951.91;4999760;28;20375;-72
2023/03/16 05:32:45;;;;;;;7.15;4.10;;;;;;;5.11;100.00;99928.06;4998508;28;20525;-70
2023/03/16 05:35:12;;;;;;;8.82;4.25;;;;;;;4.96;100.00;99873.22;5001527;28;20119;-70
2023/03/16 05:37:41;;;;;;;7.90;3.38;;;;;;;4.49;100.00;99831.84;5001046;28;20068;-72
2023/03/16 05:40:15;;;;;;;6.57;4.00;;;;;;;4.15;100.00;99811.41;5002219;28;20050;-70
2023/03/16 05:42:44;;;;;;;6.05;3.47;;;;;;;5.09;100.00;99919.34;4995059;28;20046;-71
2023/03/16 05:45:11;;;;;;;6.90;3.70;;;;;;;4.31;100.00;99828.13;5001430;28;20042;-71
2023/03/16 05:47:37;;;;;;;18.77;4.22;;;;;;;4.47;100.00;99873.38;5002108;28;20041;-71
2023/03/16 05:50:04;;;;;;;12.13;4.03;;;;;;;4.47;100.00;99862.09;5003147;28;20048;-71
2023/03/16 05:52:29;;;;;;;6.47;3.08;;;;;;;4.00;100.00;99754.03;5006074;28;20034;-72
2023/03/16 05:54:55;;;;;;;4.30;2.05;;;;;;;5.14;100.00;99987.03;5005825;28;20028;-73
2023/03/16 05:57:20;;;;;;;25.88;5.18;;;;;;;3.83;100.00;99789.25;5003845;28;20117;-71
2023/03/16 05:59:47;;;;;;;4.78;2.78;;;;;;;4.43;100.00;99869.84;5004513;28;20049;-72
2023/03/16 06:02:13;;;;;;;6.60;3.38;;;;;;;4.37;100.00;99913.91;5002226;28;20043;-71
2023/03/16 06:04:38;;;;;;;15.15;2.97;;;;;;;5.15;100.00;100028.69;5005778;28;20046;-76
2023/03/16 06:07:04;;;;;;;14.07;4.28;;;;;;;4.37;100.00;99881.88;5006603;28;20040;-73
2023/03/16 06:09:29;;;;;;;5.25;2.70;;;;;;;4.28;100.00;99907.69;5002329;28;20126;-72
2023/03/16 06:11:55;;;;;;;7.82;2.92;;;;;;;4.29;100.00;99883.47;4999786;28;20470;-72
2023/03/16 06:14:22;;;;;;;9.35;3.00;;;;;;;5.25;100.00;100025.34;5006024;28;20145;-72
2023/03/16 06:16:47;;;;;;;16.90;3.47;;;;;;;5.18;100.00;100017.44;4999782;28;20037;-71
2023/03/16 06:19:13;;;;;;;18.52;4.25;;;;;;;4.44;100.00;99891.50;5003861;28;20072;-70
2023/03/16 06:21:38;;;;;;;7.05;3.30;;;;;;;4.32;100.00;99905.16;5001412;28;20030;-71
2023/03/16 06:24:06;;;;;;;16.55;3.50;;;;;;;4.93;100.00;100006.66;5001713;28;20038;-73
2023/03/16 06:26:31;;;;;;;6.80;2.92;;;;;;;4.23;100.00;99864.31;5003380;28;20069;-72
2023/03/16 06:28:57;;;;;;;10.55;3.17;;;;;;;5.49;100.00;100050.00;5006185;28;20081;-71
2023/03/16 06:31:23;;;;;;;4.20;2.47;;;;;;;5.15;100.00;100051.19;5001218;28;20076;-71
2023/03/16 06:33:48;;;;;;;9.00;3.38;;;;;;;5.16;100.00;100050.34;5005635;28;20070;-72
2023/03/16 06:36:14;;;;;;;12.15;3.20;;;;;;;4.39;100.00;99927.78;5006344;28;20417;-71
2023/03/16 06:38:39;;;;;;;7.13;2.55;;;;;;;5.14;100.00;100029.50;5004093;28;20046;-72
2023/03/16 06:41:05;;;;;;;14.35;2.70;;;;;;;5.16;100.00;100048.63;4997884;28;20038;-73
2023/03/16 06:43:30;;;;;;;5.47;2.95;;;;;;;5.35;100.00;100074.94;5005642;28;20048;-71
2023/03/16 06:45:57;;;;;;;10.27;2.95;;;;;;;5.17;100.00;100062.50;5001713;28;20038;-72
2023/03/16 06:48:23;;;;;;;5.97;2.85;;;;;;;4.34;100.00;99924.25;5004910;28;20054;-72
2023/03/16 06:50:48;;;;;;;4.30;1.95;;;;;;;5.10;100.00;100065.84;5001323;28;20042;-72
2023/03/16 06:53:14;;;;;;;15.55;4.00;;;;;;;4.55;100.00;99962.72;4993955;28;20046;-70
2023/03/16 06:55:40;;;;;;;5.07;2.42;;;;;;;5.20;100.00;100071.22;4992981;28;20202;-73
2023/03/16 06:58:06;;;;;;;7.00;3.70;;;;;;;5.21;100.00;100072.97;4999921;28;20368;-71
2023/03/16 07:00:32;;;;;;;6.40;2.92;;;;;;;4.64;100.00;99947.28;5007972;28;20080;-71
2023/03/16 07:02:58;;;;;;;39.75;4.75;;;;;;;5.22;100.00;100047.81;5007461;28;20048;-71
2023/03/16 07:05:24;;;;;;;8.82;3.47;;;;;;;4.39;100.00;99947.72;5007762;28;20054;-74
2023/03/16 07:07:49;;;;;;;7.20;2.83;;;;;;;5.19;100.00;100095.47;4997904;28;20129;-72
2023/03/16 07:10:16;;;;;;;7.45;3.25;;;;;;;4.50;100.00;99966.09;5005083;28;20042;-75
2023/03/16 07:12:44;;;;;;;10.65;3.72;;;;;;;5.24;100.00;100105.97;5005524;28;20034;-72
2023/03/16 07:15:10;;;;;;;7.93;4.35;;;;;;;5.11;100.00;100088.41;5007768;28;20056;-71
2023/03/16 07:17:36;;;;;;;10.73;3.30;;;;;;;4.49;100.00;99998.09;5008512;28;20049;-72
2023/03/16 07:20:04;;;;;;;7.07;3.03;;;;;;;5.18;100.00;100114.53;5005364;28;20410;-71
2023/03/16 07:22:31;;;;;;;10.60;3.47;;;;;;;4.58;100.00;99974.88;5008979;28;20128;-71
2023/03/16 07:24:57;;;;;;;9.40;5.68;;;;;;;5.53;100.00;100113.38;5007386;28;20034;-71
2023/03/16 07:27:24;;;;;;;7.75;3.97;;;;;;;5.21;100.00;100090.31;5005455;28;20030;-69
2023/03/16 07:29:51;;;;;;;6.25;3.45;;;;;;;5.26;100.00;100081.72;5001499;28;20133;-72
2023/03/16 07:32:17;;;;;;;7.55;3.45;;;;;;;4.67;100.00;100040.00;5002335;28;20057;-71
2023/03/16 07:34:42;;;;;;;8.05;2.97;;;;;;;4.82;100.00;100101.75;5005972;28;20184;-71
2023/03/16 07:37:08;;;;;;;5.60;2.58;;;;;;;5.06;100.00;100129.94;4998271;28;20551;-72
2023/03/16 07:39:36;;;;;;;8.30;2.95;;;;;;;5.06;100.00;100128.22;5004361;28;20022;-72
2023/03/16 07:42:03;;;;;;;12.27;5.43;;;;;;;5.18;100.00;100129.28;4998113;28;20046;-71
2023/03/16 07:44:30;;;;;;;9.00;3.08;;;;;;;5.10;100.00;100142.13;5006918;28;20046;-71
2023/03/16 07:46:55;;;;;;;7.85;3.47;;;;;;;4.32;100.00;99972.69;5009314;28;20050;-72
2023/03/16 07:49:21;;;;;;;5.03;2.85;;;;;;;5.06;100.00;100116.94;5003027;28;20498;-73
2023/03/16 07:51:47;;;;;;;9.80;2.70;;;;;;;4.27;100.00;99984.72;5006727;28;20038;-70
2023/03/16 07:54:13;;;;;;;11.75;3.13;;;;;;;5.43;100.00;100159.16;5008218;28;20057;-71
2023/03/16 07:56:39;;;;;;;7.25;3.13;;;;;;;4.73;100.00;100029.72;5003433;28;20030;-73
2023/03/16 07:59:04;;;;;;;6.25;2.35;;;;;;;4.71;100.00;100054.81;4986997;28;20501;-71
2023/03/16 08:01:30;;;;;;;5.30;2.95;;;;;;;5.28;100.00;100165.88;4992180;28;20115;-72
2023/03/16 08:03:55;;;;;;;6.80;3.17;;;;;;;5.19;100.00;100144.03;5004063;28;20038;-73
2023/03/16 08:06:20;;;;;;;6.20;2.95;;;;;;;4.81;100.00;100059.31;5008853;28;20030;-72
2023/03/16 08:08:47;;;;;;;6.13;3.50;;;;;;;4.89;100.00;100139.16;5003316;28;20038;-71
2023/03/16 08:11:13;;;;;;;8.43;3.10;;;;;;;5.32;100.00;100165.94;5004315;28;20179;-72
2023/03/16 08:13:40;;;;;;;7.15;3.65;;;;;;;5.43;100.00;100187.78;5008067;28;20049;-72
2023/03/16 08:16:09;;;;;;;7.95;3.83;;;;;;;4.43;100.00;100023.13;5003560;28;20033;-72
2023/03/16 08:18:35;;;;;;;6.18;2.95;;;;;;;4.78;100.00;100043.66;5003829;28;20113;-74
2023/03/16 08:21:01;;;;;;;15.70;4.72;;;;;;;5.15;100.00;100127.50;5006079;28;20652;-72
2023/03/16 08:23:28;;;;;;;4.47;3.38;;;;;;;5.03;100.00;100187.97;4999699;28;20034;-70
2023/03/16 08:25:55;;;;;;;8.02;4.43;;;;;;;5.26;100.00;100156.28;5006155;28;20050;-74
2023/03/16 08:28:20;;;;;;;7.30;2.97;;;;;;;5.09;100.00;100137.78;5003738;28;20081;-72
2023/03/16 08:30:51;;;;;;;5.68;4.18;;;;;;;5.23;100.00;100193.53;4998982;28;20061;-72
2023/03/16 08:33:16;;;;;;;7.30;3.25;;;;;;;5.45;100.00;100173.06;4999020;28;20061;-71
2023/03/16 08:35:43;;;;;;;5.30;2.53;;;;;;;5.49;100.00;100157.53;4999972;28;20050;-71
2023/03/16 08:38:10;;;;;;;6.90;2.65;;;;;;;5.03;100.00;100072.66;5002110;28;20037;-72
2023/03/16 08:40:35;;;;;;;7.35;2.20;;;;;;;4.26;100.00;99971.69;4999470;28;22050;-70
2023/03/16 08:43:02;;;;;;;6.97;3.22;;;;;;;5.29;100.00;100201.44;5005900;28;20453;-72
2023/03/16 08:45:28;;;;;;;6.32;3.50;;;;;;;5.33;100.00;100197.16;5000084;28;20041;-72
2023/03/16 08:47:54;;;;;;;9.23;3.30;;;;;;;5.18;100.00;100208.19;5005535;28;20054;-71
2023/03/16 08:50:19;;;;;;;4.82;2.47;;;;;;;4.39;100.00;100075.84;5000223;28;20042;-71
2023/03/16 08:52:47;;;;;;;8.43;3.47;;;;;;;4.89;100.00;100146.94;5000503;28;20621;-72
2023/03/16 08:55:14;;;;;;;6.57;3.13;;;;;;;4.67;100.00;100101.50;4996308;28;20045;-74
2023/03/16 08:57:40;;;;;;;7.72;2.92;;;;;;;4.89;100.00;100097.56;5005816;28;20037;-73
2023/03/16 09:00:13;;;;;;;8.60;3.15;;;;;;;5.55;100.00;100224.44;4996507;28;20077;-71
2023/03/16 09:02:42;;;;;;;6.07;2.35;;;;;;;5.00;100.00;100078.69;4999187;28;20054;-70
2023/03/16 09:05:10;;;;;;;7.93;3.50;;;;;;;5.31;100.00;100226.59;4997592;28;20149;-72
2023/03/16 09:07:38;;;;;;;5.55;2.75;;;;;;;5.32;100.00;100212.75;5006263;28;20110;-71
2023/03/16 09:10:05;;;;;;;21.55;3.65;;;;;;;4.99;100.00;100110.75;5005442;28;20474;-74
2023/03/16 09:12:33;;;;;;;24.90;3.45;;;;;;;4.69;100.00;100081.63;5004780;28;20030;-70
2023/03/16 09:14:59;;;;;;;8.75;5.28;;;;;;;5.53;100.00;100213.13;5004672;28;20101;-73
2023/03/16 09:17:25;;;;;;;12.85;4.25;;;;;;;5.76;100.00;100212.63;5008724;28;20615;-70
2023/03/16 09:19:51;;;;;;;7.18;3.60;;;;;;;4.95;100.00;100075.16;5006132;28;20042;-71
2023/03/16 09:22:18;;;;;;;4.97;3.33;;;;;;;5.34;100.00;100133.00;5008084;28;20050;-72
2023/03/16 09:24:44;;;;;;;8.68;3.78;;;;;;;5.20;100.00;100068.63;5011359;28;20056;-72
2023/03/16 09:27:09;;;;;;;7.38;3.63;;;;;;;5.16;100.00;100069.44;5003495;28;20050;-71
2023/03/16 09:29:35;;;;;;;8.15;3.10;;;;;;;5.07;100.00;100100.47;5015978;28;20037;-71
2023/03/16 09:32:01;;;;;;;13.98;6.95;;;;;;;5.18;100.00;100074.66;4998577;28;20045;-71
2023/03/16 09:34:26;;;;;;;8.90;4.38;;;;;;;5.21;100.00;100059.09;5006914;28;20061;-70
2023/03/16 09:36:52;;;;;;;7.80;4.13;;;;;;;5.21;100.00;100061.69;5008752;28;20044;-71
2023/03/16 09:39:18;;;;;;;8.45;3.97;;;;;;;6.09;100.00;100197.56;5005611;28;20477;-73
2023/03/16 09:41:57;;;;;;;8.57;4.68;;;;;;;4.64;100.00;100050.34;5001301;28;20073;-71
2023/03/16 09:45:01;;;;;;;5.90;4.05;;;;;;;5.28;100.00;100054.00;5000532;28;20046;-71
2023/03/16 09:47:31;;;;;;;13.40;5.20;;;;;;;4.91;100.00;100056.88;4948762;28;20095;-72
2023/03/16 09:50:01;;;;;;;14.60;5.05;;;;;;;5.18;100.00;100064.25;4991735;28;20050;-74
2023/03/16 09:52:42;;;;;;;12.95;4.25;;;;;;;6.06;100.00;100189.72;5005412;28;20053;-76
2023/03/16 09:55:30;;;;;;;7.22;4.30;;;;;;;5.25;100.00;100060.91;4994873;28;20165;-70
2023/03/16 09:57:57;;;;;;;5.72;3.80;;;;;;;5.08;100.00;100065.84;5002191;28;20331;-70
2023/03/16 10:00:32;;;;;;;11.60;4.85;;;;;;;5.55;100.00;100166.28;5004741;28;20096;-73
2023/03/16 10:03:12;;;;;;;5.30;4.10;;;;;;;5.03;100.00;100067.47;5002987;28;20129;-71
2023/03/16 10:05:38;;;;;;;7.45;4.40;;;;;;;5.20;100.00;100080.78;5001004;28;20042;-71
2023/03/16 10:08:29;;;;;;;11.23;5.57;;;;;;;4.44;100.00;100089.78;5001558;28;20141;-71
2023/03/16 10:11:07;;;;;;;8.32;4.60;;;;;;;5.44;100.00;100212.97;4999685;28;20052;-72
2023/03/16 10:14:06;;;;;;;14.20;4.13;;;;;;;5.41;100.00;100216.41;4993561;28;20038;-73
2023/03/16 10:16:45;;;;;;;14.63;8.15;;;;;;;5.64;100.00;100188.16;4999613;28;20050;-70
2023/03/16 10:19:24;;;;;;;13.25;8.55;;;;;;;5.81;100.00;100208.38;5001097;28;20049;-71
2023/03/16 10:21:53;;;;;;;6.70;4.72;;;;;;;5.65;100.00;100140.44;5000166;28;20399;-74
2023/03/16 10:24:37;;;;;;;11.50;5.07;;;;;;;5.04;100.00;100058.84;5006551;28;20033;-72
2023/03/16 10:27:03;;;;;;;;;;;;;;;5.94;100.00;100181.69;5000460;28;20081;-70
2023/03/16 10:29:34;;;;;;;9.25;5.53;;;;;;;4.69;100.00;100029.63;5002918;28;19921;-71
2023/03/16 10:32:10;;;;;;;13.00;6.38;;;;;;;5.80;100.00;100167.56;5001656;28;20749;-73
2023/03/16 10:34:36;;;;;;;10.95;4.65;;;;;;;4.39;100.00;99907.00;4998045;28;20072;-72
2023/03/16 10:37:04;;;;;;;12.00;7.50;;;;;;;5.40;100.00;100166.94;5007902;28;20740;-71
2023/03/16 10:39:35;;;;;;;11.43;6.00;;;;;;;5.77;100.00;100152.78;5017940;28;20053;-72
2023/03/16 10:42:01;;;;;;;12.13;5.47;;;;;;;5.70;100.00;100119.69;4999771;28;20042;-71
2023/03/16 10:44:28;;;;;;;7.70;4.35;;;;;;;4.89;100.00;99999.63;5007533;28;20050;-72
2023/03/16 10:47:03;;;;;;;13.38;5.53;;;;;;;4.83;100.00;100017.75;5008520;28;20351;-70
2023/03/16 10:49:40;;;;;;;9.73;4.40;;;;;;;5.15;100.00;100134.41;5007425;28;20058;-74
2023/03/16 10:52:22;;;;;;;7.60;4.20;;;;;;;5.61;100.00;100142.97;5001769;28;20273;-72
2023/03/16 10:54:55;;;;;;;10.60;4.40;;;;;;;5.46;100.00;100154.91;5007297;28;20482;-73
2023/03/16 10:57:40;;;;;;;7.30;4.80;;;;;;;5.05;100.00;100044.97;5006057;28;20058;-71
2023/03/16 11:00:19;;;;;;;6.25;4.45;;;;;;;5.52;100.00;100167.13;5009326;28;20042;-71
2023/03/16 11:02:48;;;;;;;13.65;6.07;;;;;;;5.98;100.00;100154.00;5008625;28;20498;-75
2023/03/16 11:05:16;;;;;;;9.48;3.75;;;;;;;5.60;100.00;100162.94;5007605;28;20081;-71
2023/03/16 11:08:18;;;;;;;8.27;4.53;;;;;;;5.78;100.00;100169.28;5004344;28;20050;-72
2023/03/16 11:10:46;;;;;;;6.97;4.18;;;;;;;4.95;100.00;100053.47;5004455;28;20164;-71
2023/03/16 11:13:17;;;;;;;11.25;6.13;;;;;;;5.73;100.00;100171.81;5005889;28;20065;-72
2023/03/16 11:16:01;;;;;;;9.18;5.45;;;;;;;5.64;100.00;100133.50;5006717;28;20390;-71
2023/03/16 11:18:42;;;;;;;10.55;4.78;;;;;;;5.85;100.00;100164.19;5006866;28;20107;-72
2023/03/16 11:21:53;;;;;;;12.73;6.43;;;;;;;5.33;100.00;100029.78;5006731;28;20042;-70
2023/03/16 11:24:29;;;;;;;12.02;5.45;;;;;;;6.26;100.00;100148.28;4993181;28;20092;-71
2023/03/16 11:26:59;;;;;;;8.07;5.18;;;;;;;5.65;100.00;100048.50;4997129;28;20030;-73
2023/03/16 11:29:37;;;;;;;10.40;6.60;;;;;;;5.94;100.00;100095.75;5007338;28;20039;-70